Time;durP1;ratioP1;P1;durP2;ratioP2;P2;SDS_P1;SDS_P2;PMS_P1;PMS_P2;Temp;Humidity;BMP_temperature;BMP_pressure;BME280_temperature;BME280_humidity;BME280_pressure;Samples;Min_cycle;Max_cycle;Signal;HPM_P1;HPM_P2
2021/01/08 00:00:52;;;;;;;1.30;0.80;;;;;10.70;101020.00;;;;5011246;28;20228;-79
2021/01/08 00:03:19;;;;;;;1.67;0.90;;;;;10.70;101012.00;;;;5010803;28;20209;-79
2021/01/08 00:05:45;;;;;;;1.30;0.77;;;;;10.70;101013.00;;;;5007292;28;20306;-79
2021/01/08 00:08:13;;;;;;;1.63;0.85;;;;;10.70;101017.00;;;;5007567;28;20205;-78
2021/01/08 00:10:40;;;;;;;1.85;0.90;;;;;10.70;101013.00;;;;5011425;28;20197;-79
2021/01/08 00:13:06;;;;;;;1.27;0.90;;;;;10.70;101015.00;;;;5009381;28;20189;-78
2021/01/08 00:15:33;;;;;;;1.13;0.63;;;;;10.70;101016.00;;;;4992307;28;20217;-78
2021/01/08 00:18:00;;;;;;;1.27;0.60;;;;;10.70;101009.00;;;;5004033;28;20228;-78
2021/01/08 00:20:27;;;;;;;1.00;0.68;;;;;10.60;101019.00;;;;5005684;28;20221;-78
2021/01/08 00:22:54;;;;;;;1.25;0.95;;;;;10.60;101014.00;;;;5000279;28;20200;-78
2021/01/08 00:25:21;;;;;;;1.30;0.80;;;;;10.60;101011.00;;;;4993326;28;20320;-78
2021/01/08 00:27:48;;;;;;;1.80;0.77;;;;;10.60;101013.00;;;;5002387;28;20587;-78
2021/01/08 00:30:15;;;;;;;4.70;0.70;;;;;10.60;101010.00;;;;5010842;28;20197;-78
2021/01/08 00:32:42;;;;;;;0.88;0.55;;;;;10.60;101014.00;;;;5010907;28;20205;-78
2021/01/08 00:35:10;;;;;;;1.77;0.98;;;;;10.50;101012.00;;;;5010617;28;20194;-78
2021/01/08 00:37:37;;;;;;;1.58;0.80;;;;;10.60;101010.00;;;;5008048;28;20204;-78
2021/01/08 00:40:05;;;;;;;0.80;0.50;;;;;10.50;101012.00;;;;5010158;28;20265;-78
2021/01/08 00:42:34;;;;;;;0.85;0.60;;;;;10.50;101013.00;;;;5010459;28;20216;-78
2021/01/08 00:45:01;;;;;;;1.60;0.75;;;;;10.50;101014.00;;;;5010645;28;20307;-79
2021/01/08 00:47:27;;;;;;;0.88;0.50;;;;;10.50;101012.00;;;;5009324;28;20209;-78
2021/01/08 00:49:54;;;;;;;0.80;0.55;;;;;10.50;101011.00;;;;5009537;28;20201;-78
2021/01/08 00:52:21;;;;;;;1.38;0.60;;;;;10.50;101020.00;;;;5011052;28;20189;-78
2021/01/08 00:54:49;;;;;;;0.65;0.40;;;;;10.40;101015.00;;;;5000627;28;21019;-78
2021/01/08 00:57:16;;;;;;;0.80;0.60;;;;;10.40;101018.00;;;;5009782;28;20201;-78
2021/01/08 00:59:44;;;;;;;2.28;0.63;;;;;10.40;101019.00;;;;5009604;28;20225;-78
2021/01/08 01:02:11;;;;;;;1.27;0.70;;;;;10.50;101018.00;;;;5009974;28;20721;-78
2021/01/08 01:04:37;;;;;;;0.68;0.45;;;;;10.40;101012.00;;;;5009391;28;20684;-78
2021/01/08 01:07:04;;;;;;;1.10;0.57;;;;;10.40;101013.00;;;;5008868;28;20189;-78
2021/01/08 01:09:31;;;;;;;0.50;0.40;;;;;10.40;101017.00;;;;5005676;28;20689;-78
2021/01/08 01:11:57;;;;;;;0.90;0.50;;;;;10.40;101013.00;;;;5008982;28;20211;-78
2021/01/08 01:14:24;;;;;;;1.30;0.57;;;;;10.40;101016.00;;;;5010363;28;20209;-78
2021/01/08 01:16:52;;;;;;;0.85;0.50;;;;;10.40;101011.00;;;;5006040;28;20201;-79
2021/01/08 01:19:19;;;;;;;0.63;0.50;;;;;10.40;101010.00;;;;5001209;28;20981;-79
2021/01/08 01:21:46;;;;;;;1.30;0.65;;;;;10.50;101011.00;;;;5008964;28;20212;-79
2021/01/08 01:24:12;;;;;;;0.77;0.70;;;;;10.50;101012.00;;;;4996086;28;20221;-79
2021/01/08 01:26:39;;;;;;;0.60;0.40;;;;;10.50;101012.00;;;;5007756;28;20221;-78
2021/01/08 01:29:06;;;;;;;0.82;0.50;;;;;10.50;101022.00;;;;5007947;28;20204;-79
2021/01/08 01:31:32;;;;;;;0.75;0.40;;;;;10.50;101022.00;;;;5005492;28;20259;-79
2021/01/08 01:34:00;;;;;;;2.28;1.00;;;;;10.50;101025.00;;;;4998713;28;20726;-79
2021/01/08 01:36:27;;;;;;;0.75;0.35;;;;;10.50;101024.00;;;;5008772;28;20197;-78
2021/01/08 01:38:53;;;;;;;1.45;0.80;;;;;10.50;101033.00;;;;5006087;28;20204;-78
2021/01/08 01:41:20;;;;;;;1.05;0.40;;;;;10.50;101035.00;;;;5009401;28;20212;-78
2021/01/08 01:43:47;;;;;;;4.53;0.43;;;;;10.50;101032.00;;;;5000798;28;20671;-79
2021/01/08 01:46:20;;;;;;;0.80;0.50;;;;;10.50;101037.00;;;;5007503;28;20224;-78
2021/01/08 01:48:47;;;;;;;1.35;0.52;;;;;10.50;101040.00;;;;5008294;28;20200;-78
2021/01/08 01:51:16;;;;;;;0.60;0.40;;;;;10.50;101043.00;;;;5008998;28;20208;-78
2021/01/08 01:53:43;;;;;;;0.80;0.40;;;;;10.50;101040.00;;;;5002467;28;20259;-79
2021/01/08 01:56:10;;;;;;;0.70;0.45;;;;;10.50;101042.00;;;;5008498;28;20200;-79
2021/01/08 01:58:37;;;;;;;0.70;0.40;;;;;10.50;101044.00;;;;5006867;28;20220;-79
2021/01/08 02:01:03;;;;;;;1.10;0.60;;;;;10.50;101054.00;;;;4993176;28;20228;-79
2021/01/08 02:03:35;;;;;;;1.30;0.70;;;;;10.50;101046.00;;;;5007719;28;20212;-79
2021/01/08 02:06:06;;;;;;;0.90;0.43;;;;;10.50;101049.00;;;;5008568;28;20228;-79
2021/01/08 02:08:36;;;;;;;1.30;0.32;;;;;10.50;101048.00;;;;5006513;28;20271;-79
2021/01/08 02:11:07;;;;;;;0.52;0.32;;;;;10.50;101058.00;;;;5008004;28;20588;-79
2021/01/08 02:13:41;;;;;;;0.75;0.52;;;;;10.50;101048.00;;;;5007104;28;20196;-79
2021/01/08 02:16:10;;;;;;;1.08;0.40;;;;;10.50;101063.00;;;;5008267;28;20211;-79
2021/01/08 02:18:38;;;;;;;0.75;0.45;;;;;10.50;101055.00;;;;5007523;28;20213;-79
2021/01/08 02:21:08;;;;;;;0.95;0.50;;;;;10.50;101064.00;;;;5005579;28;20212;-79
2021/01/08 02:23:43;;;;;;;0.80;0.35;;;;;10.50;101058.00;;;;5006685;28;20212;-79
2021/01/08 02:26:12;;;;;;;0.82;0.52;;;;;10.50;101059.00;;;;5005578;28;20235;-79
2021/01/08 02:28:39;;;;;;;1.05;0.50;;;;;10.50;101061.00;;;;4996238;28;20220;-79
2021/01/08 02:31:06;;;;;;;0.82;0.55;;;;;10.50;101068.00;;;;5008136;28;20197;-79
2021/01/08 02:33:33;;;;;;;0.90;0.57;;;;;10.50;101065.00;;;;5008970;28;20247;-79
2021/01/08 02:36:02;;;;;;;1.05;0.60;;;;;10.50;101064.00;;;;5006082;28;20197;-80
2021/01/08 02:38:30;;;;;;;0.47;0.47;;;;;10.50;101063.00;;;;5001791;28;20209;-79
2021/01/08 02:40:58;;;;;;;0.77;0.50;;;;;10.50;101065.00;;;;5007234;28;20216;-79
2021/01/08 02:43:29;;;;;;;0.63;0.50;;;;;10.50;101063.00;;;;5007424;28;20201;-79
2021/01/08 02:45:55;;;;;;;0.90;0.50;;;;;10.60;101065.00;;;;5006927;28;20217;-79
2021/01/08 02:48:23;;;;;;;0.80;0.50;;;;;10.60;101053.00;;;;5007952;28;20211;-79
2021/01/08 02:50:50;;;;;;;1.00;0.63;;;;;10.60;101064.00;;;;5005921;28;20562;-79
2021/01/08 02:53:20;;;;;;;0.70;0.52;;;;;10.60;101064.00;;;;5002727;28;20193;-79
2021/01/08 02:55:54;;;;;;;0.80;0.55;;;;;10.60;101067.00;;;;5007115;28;20192;-79
2021/01/08 02:58:22;;;;;;;0.63;0.47;;;;;10.60;101080.00;;;;5007981;28;20233;-79
2021/01/08 03:00:52;;;;;;;1.20;0.70;;;;;10.60;101079.00;;;;5008715;28;20219;-79
2021/01/08 03:03:19;;;;;;;1.40;0.70;;;;;10.60;101074.00;;;;5012480;28;20201;-79
2021/01/08 03:05:46;;;;;;;1.13;0.88;;;;;10.60;101070.00;;;;5011002;28;20728;-79
2021/01/08 03:08:13;;;;;;;1.95;0.60;;;;;10.60;101071.00;;;;5010679;28;20208;-79
2021/01/08 03:10:40;;;;;;;0.98;0.73;;;;;10.60;101069.00;;;;5011777;28;20201;-79
2021/01/08 03:13:08;;;;;;;2.03;0.70;;;;;10.60;101066.00;;;;5009493;28;20196;-79
2021/01/08 03:15:35;;;;;;;1.00;0.75;;;;;10.60;101068.00;;;;5012201;28;20204;-79
2021/01/08 03:18:02;;;;;;;1.02;0.70;;;;;10.60;101070.00;;;;5011974;28;20255;-79
2021/01/08 03:20:29;;;;;;;1.88;1.05;;;;;10.60;101070.00;;;;5012449;28;20213;-79
2021/01/08 03:22:56;;;;;;;1.35;0.60;;;;;10.50;101067.00;;;;5006463;28;20808;-79
2021/01/08 03:25:23;;;;;;;1.08;0.70;;;;;10.50;101069.00;;;;5011518;28;20690;-79
2021/01/08 03:27:50;;;;;;;1.50;0.75;;;;;10.50;101067.00;;;;5002705;28;20202;-79
2021/01/08 03:30:17;;;;;;;1.20;0.80;;;;;10.50;101068.00;;;;5010015;28;20197;-79
2021/01/08 03:32:44;;;;;;;1.30;1.00;;;;;10.50;101064.00;;;;5010790;28;20197;-79
2021/01/08 03:35:12;;;;;;;0.82;0.70;;;;;10.40;101072.00;;;;5011631;28;20243;-79
2021/01/08 03:37:38;;;;;;;1.50;0.80;;;;;10.40;101066.00;;;;5005658;28;20231;-79
2021/01/08 03:40:07;;;;;;;0.98;0.52;;;;;10.40;101068.00;;;;5011511;28;20336;-79
2021/01/08 03:42:34;;;;;;;1.35;0.90;;;;;10.40;101071.00;;;;5011762;28;20224;-79
2021/01/08 03:45:01;;;;;;;0.90;0.63;;;;;10.40;101070.00;;;;5008794;28;20228;-79
2021/01/08 03:47:28;;;;;;;1.80;0.80;;;;;10.30;101070.00;;;;5005341;28;20202;-79
2021/01/08 03:49:55;;;;;;;1.38;0.82;;;;;10.30;101075.00;;;;5001276;28;20839;-79
2021/01/08 03:52:22;;;;;;;0.75;0.55;;;;;10.30;101078.00;;;;5009858;28;20682;-80
2021/01/08 03:54:49;;;;;;;1.08;0.73;;;;;10.30;101075.00;;;;5007627;28;20702;-79
2021/01/08 03:57:16;;;;;;;1.88;0.73;;;;;10.30;101074.00;;;;5006190;28;20248;-79
2021/01/08 03:59:42;;;;;;;0.73;0.57;;;;;10.30;101071.00;;;;4997956;28;20276;-79
2021/01/08 04:02:09;;;;;;;0.75;0.52;;;;;10.20;101066.00;;;;5009866;28;20208;-79
2021/01/08 04:04:36;;;;;;;1.17;0.68;;;;;10.20;101072.00;;;;5010866;28;20205;-79
2021/01/08 04:07:03;;;;;;;1.00;0.70;;;;;10.20;101068.00;;;;5009755;28;20228;-79
2021/01/08 04:09:31;;;;;;;1.60;0.88;;;;;10.20;101073.00;;;;5009478;28;20201;-79
2021/01/08 04:11:58;;;;;;;1.40;0.95;;;;;10.20;101069.00;;;;5010257;28;20209;-79
2021/01/08 04:14:25;;;;;;;0.93;0.73;;;;;10.20;101074.00;;;;5011658;28;20559;-79
2021/01/08 04:16:51;;;;;;;0.63;0.50;;;;;10.20;101067.00;;;;5004390;28;20198;-79
2021/01/08 04:19:18;;;;;;;0.82;0.63;;;;;10.10;101072.00;;;;5004285;28;20197;-79
2021/01/08 04:21:46;;;;;;;1.40;0.73;;;;;10.10;101069.00;;;;5010275;28;20215;-79
2021/01/08 04:24:13;;;;;;;0.93;0.57;;;;;10.10;101073.00;;;;4999148;28;20652;-79
2021/01/08 04:26:41;;;;;;;1.27;0.77;;;;;10.00;101083.00;;;;5004861;28;20221;-79
2021/01/08 04:29:08;;;;;;;1.20;0.68;;;;;10.00;101081.00;;;;5010335;28;20200;-78
2021/01/08 04:31:36;;;;;;;1.35;0.73;;;;;10.00;101081.00;;;;5010014;28;20686;-78
2021/01/08 04:34:03;;;;;;;0.88;0.60;;;;;10.00;101087.00;;;;5009890;28;20226;-78
2021/01/08 04:36:30;;;;;;;1.02;0.60;;;;;10.00;101078.00;;;;5008947;28;20215;-78
2021/01/08 04:38:56;;;;;;;1.40;0.82;;;;;9.90;101075.00;;;;5006959;28;20639;-79
2021/01/08 04:41:23;;;;;;;1.35;0.77;;;;;9.90;101084.00;;;;5010251;28;20547;-79
2021/01/08 04:43:51;;;;;;;1.05;0.70;;;;;9.90;101074.00;;;;5009240;28;20197;-78
2021/01/08 04:46:21;;;;;;;1.20;0.95;;;;;9.90;101077.00;;;;5009654;28;20226;-79
2021/01/08 04:48:52;;;;;;;1.15;0.70;;;;;9.90;101074.00;;;;5008960;28;20205;-79
2021/01/08 04:51:19;;;;;;;0.90;0.60;;;;;9.90;101081.00;;;;5010620;28;20204;-78
2021/01/08 04:53:46;;;;;;;1.40;0.73;;;;;9.80;101079.00;;;;5004640;28;20205;-78
2021/01/08 04:56:16;;;;;;;1.00;0.70;;;;;9.80;101079.00;;;;5010737;28;20209;-79
2021/01/08 04:58:45;;;;;;;1.02;0.60;;;;;9.80;101085.00;;;;5002139;28;20268;-78
2021/01/08 05:01:15;;;;;;;1.50;0.98;;;;;9.80;101085.00;;;;5000694;28;20209;-79
2021/01/08 05:03:41;;;;;;;0.88;0.65;;;;;9.80;101086.00;;;;5010481;28;20259;-79
2021/01/08 05:06:08;;;;;;;0.88;0.60;;;;;9.70;101085.00;;;;5009422;28;20227;-79
2021/01/08 05:08:35;;;;;;;0.98;0.63;;;;;9.70;101089.00;;;;5002390;28;20197;-78
2021/01/08 05:11:20;;;;;;;1.13;0.70;;;;;9.60;101093.00;;;;5002154;28;20201;-78
2021/01/08 05:13:52;;;;;;;1.00;0.60;;;;;9.60;101101.00;;;;5010808;28;20277;-79
2021/01/08 05:16:21;;;;;;;0.80;0.60;;;;;9.60;101104.00;;;;5007736;28;20683;-79
2021/01/08 05:18:48;;;;;;;1.08;0.88;;;;;9.60;101102.00;;;;5009444;28;20201;-79
2021/01/08 05:21:16;;;;;;;0.90;0.70;;;;;9.60;101095.00;;;;5009438;28;20205;-79
2021/01/08 05:23:43;;;;;;;2.10;0.80;;;;;9.60;101099.00;;;;5008675;28;20721;-79
2021/01/08 05:26:13;;;;;;;0.63;0.32;;;;;9.50;101104.00;;;;5006275;28;20232;-79
2021/01/08 05:28:45;;;;;;;0.82;0.50;;;;;9.50;101102.00;;;;5005749;28;20280;-79
2021/01/08 05:31:12;;;;;;;1.25;0.70;;;;;9.50;101113.00;;;;5009331;28;20308;-79
2021/01/08 05:33:41;;;;;;;1.23;0.85;;;;;9.50;101116.00;;;;5008162;28;20296;-78
2021/01/08 05:36:10;;;;;;;0.82;0.50;;;;;9.50;101108.00;;;;5000333;28;20255;-78
2021/01/08 05:38:40;;;;;;;0.82;0.68;;;;;9.50;101110.00;;;;5009844;28;20197;-78
2021/01/08 05:41:08;;;;;;;2.33;1.05;;;;;9.60;101121.00;;;;5008844;28;20209;-78
2021/01/08 05:43:35;;;;;;;0.75;0.70;;;;;9.60;101120.00;;;;5004228;28;20200;-78
2021/01/08 05:46:09;;;;;;;1.08;0.88;;;;;9.50;101123.00;;;;5008159;28;20224;-78
2021/01/08 05:48:40;;;;;;;1.13;0.80;;;;;9.50;101122.00;;;;5004213;28;20200;-78
2021/01/08 05:51:07;;;;;;;1.10;0.80;;;;;9.60;101128.00;;;;4997515;28;20189;-78
2021/01/08 05:53:36;;;;;;;1.02;0.82;;;;;9.60;101125.00;;;;5007945;28;20581;-78
2021/01/08 05:56:03;;;;;;;1.88;1.17;;;;;9.60;101126.00;;;;5008153;28;20197;-78
2021/01/08 05:58:30;;;;;;;1.63;0.70;;;;;9.60;101133.00;;;;5009722;28;20261;-78
2021/01/08 06:00:58;;;;;;;1.45;1.02;;;;;9.60;101134.00;;;;5004538;28;20216;-78
2021/01/08 06:03:26;;;;;;;1.20;0.75;;;;;9.60;101139.00;;;;5009229;28;20212;-78
2021/01/08 06:05:55;;;;;;;1.80;0.82;;;;;9.60;101127.00;;;;5007384;28;20232;-79
2021/01/08 06:08:25;;;;;;;2.15;1.20;;;;;9.60;101136.00;;;;5008780;28;20906;-78
2021/01/08 06:10:54;;;;;;;1.25;0.93;;;;;9.70;101133.00;;;;5009257;28;20225;-78
2021/01/08 06:13:24;;;;;;;2.20;0.93;;;;;9.70;101147.00;;;;5008936;28;20201;-78
2021/01/08 06:15:54;;;;;;;2.13;1.20;;;;;9.70;101143.00;;;;5007850;28;20200;-78
2021/01/08 06:18:22;;;;;;;1.08;0.80;;;;;9.80;101139.00;;;;4999355;28;20197;-78
2021/01/08 06:20:51;;;;;;;1.50;1.02;;;;;9.80;101145.00;;;;5007566;28;20196;-78
2021/01/08 06:23:39;;;;;;;1.60;0.90;;;;;9.70;101151.00;;;;5009366;28;20279;-77
2021/01/08 06:26:08;;;;;;;2.78;1.25;;;;;9.80;101139.00;;;;5008907;28;20232;-78
2021/01/08 06:28:37;;;;;;;2.90;0.90;;;;;9.80;101146.00;;;;5008911;28;20208;-78
2021/01/08 06:31:06;;;;;;;1.67;1.00;;;;;9.80;101144.00;;;;5009206;28;20197;-77
2021/01/08 06:33:37;;;;;;;1.38;0.90;;;;;9.80;101144.00;;;;5009368;28;20208;-77
2021/01/08 06:36:16;;;;;;;1.58;1.30;;;;;9.80;101148.00;;;;5008055;28;20216;-78
2021/01/08 06:38:49;;;;;;;1.20;0.85;;;;;9.80;101147.00;;;;5004185;28;20194;-78
2021/01/08 06:41:17;;;;;;;1.70;1.05;;;;;9.90;101146.00;;;;4990596;28;20200;-78
2021/01/08 06:43:50;;;;;;;1.08;0.77;;;;;9.90;101160.00;;;;5005036;28;20205;-77
2021/01/08 06:46:33;;;;;;;1.40;1.00;;;;;9.80;101164.00;;;;5008642;28;20666;-77
2021/01/08 06:49:02;;;;;;;1.45;0.90;;;;;9.90;101167.00;;;;5006662;28;20208;-78
2021/01/08 06:51:31;;;;;;;1.88;1.40;;;;;9.90;101167.00;;;;5008204;28;20212;-78
2021/01/08 06:54:01;;;;;;;1.30;1.02;;;;;9.90;101174.00;;;;5008292;28;20232;-78
2021/01/08 06:56:29;;;;;;;1.58;1.08;;;;;9.90;101175.00;;;;5006395;28;20550;-78
2021/01/08 06:58:57;;;;;;;2.28;1.00;;;;;10.00;101181.00;;;;4990487;28;20226;-78
2021/01/08 07:01:41;;;;;;;1.40;1.00;;;;;9.90;101175.00;;;;4994386;28;20217;-78
2021/01/08 07:04:11;;;;;;;2.08;1.08;;;;;9.90;101173.00;;;;4988844;28;20749;-78
2021/01/08 07:06:39;;;;;;;1.80;1.23;;;;;10.00;101186.00;;;;5001378;28;20311;-77
2021/01/08 07:09:08;;;;;;;2.90;1.17;;;;;10.00;101181.00;;;;5008068;28;20936;-77
2021/01/08 07:11:36;;;;;;;2.80;1.00;;;;;10.00;101190.00;;;;5009243;28;20213;-77
2021/01/08 07:14:09;;;;;;;2.95;1.35;;;;;10.00;101191.00;;;;5007419;28;20228;-77
2021/01/08 07:16:40;;;;;;;1.27;0.80;;;;;10.00;101193.00;;;;4994930;28;20197;-78
2021/01/08 07:19:10;;;;;;;1.92;1.40;;;;;10.00;101201.00;;;;5000002;28;20568;-78
2021/01/08 07:21:42;;;;;;;1.23;1.02;;;;;9.90;101205.00;;;;5008387;28;20205;-78
2021/01/08 07:24:12;;;;;;;1.42;1.05;;;;;10.00;101202.00;;;;5005726;28;20201;-78
2021/01/08 07:26:39;;;;;;;1.10;0.93;;;;;10.00;101205.00;;;;5004522;28;20228;-78
2021/01/08 07:29:07;;;;;;;1.52;0.95;;;;;10.00;101208.00;;;;5003736;28;20213;-77
2021/01/08 07:31:36;;;;;;;1.40;0.90;;;;;10.00;101213.00;;;;4991459;28;20249;-78
2021/01/08 07:34:04;;;;;;;1.70;1.05;;;;;10.00;101221.00;;;;5004251;28;20209;-77
2021/01/08 07:36:32;;;;;;;1.52;1.13;;;;;10.00;101216.00;;;;4996545;28;20197;-78
2021/01/08 07:39:00;;;;;;;0.80;0.63;;;;;10.00;101223.00;;;;4999694;28;20201;-78
2021/01/08 07:41:35;;;;;;;1.25;0.88;;;;;10.00;101223.00;;;;4998707;28;20671;-77
2021/01/08 07:44:03;;;;;;;1.95;1.30;;;;;10.00;101231.00;;;;4994541;28;20198;-78
2021/01/08 07:46:31;;;;;;;1.17;0.90;;;;;10.00;101230.00;;;;5007327;28;20232;-77
2021/01/08 07:48:59;;;;;;;1.83;1.10;;;;;10.00;101234.00;;;;5010237;28;20213;-78
2021/01/08 07:51:45;;;;;;;1.50;0.98;;;;;9.90;101235.00;;;;5001220;28;20204;-77
2021/01/08 07:54:12;;;;;;;1.00;0.82;;;;;10.00;101240.00;;;;5011721;28;20216;-77
2021/01/08 07:57:04;;;;;;;2.55;0.95;;;;;9.90;101248.00;;;;5002388;28;20604;-78
2021/01/08 07:59:32;;;;;;;1.35;1.08;;;;;10.00;101256.00;;;;5010918;28;20239;-77
2021/01/08 08:01:59;;;;;;;1.80;1.00;;;;;10.00;101260.00;;;;5009049;28;20213;-78
2021/01/08 08:04:28;;;;;;;1.10;0.88;;;;;9.90;101259.00;;;;5011158;28;20295;-77
2021/01/08 08:06:56;;;;;;;2.08;0.95;;;;;10.00;101262.00;;;;5010980;28;20221;-77
2021/01/08 08:09:23;;;;;;;1.25;1.00;;;;;9.90;101270.00;;;;5011092;28;20205;-77
2021/01/08 08:11:50;;;;;;;1.27;1.02;;;;;10.00;101269.00;;;;5006926;28;20284;-77
2021/01/08 08:14:19;;;;;;;1.65;1.23;;;;;10.00;101276.00;;;;5003906;28;20201;-77
2021/01/08 08:16:46;;;;;;;1.20;0.98;;;;;10.00;101274.00;;;;5010416;28;20236;-77
2021/01/08 08:19:14;;;;;;;1.48;1.17;;;;;10.00;101275.00;;;;4997246;28;20212;-77
2021/01/08 08:21:47;;;;;;;1.30;0.90;;;;;10.00;101275.00;;;;5010758;28;20248;-77
2021/01/08 08:24:16;;;;;;;1.92;1.00;;;;;10.00;101282.00;;;;5001364;28;20322;-76
2021/01/08 08:26:43;;;;;;;1.20;1.02;;;;;10.00;101292.00;;;;5008192;28;20231;-76
2021/01/08 08:29:12;;;;;;;1.58;1.00;;;;;10.00;101293.00;;;;5006077;28;20201;-76
2021/01/08 08:31:41;;;;;;;1.55;0.98;;;;;10.00;101286.00;;;;4991499;28;20610;-77
2021/01/08 08:34:09;;;;;;;1.13;0.90;;;;;10.00;101307.00;;;;4998291;28;20552;-78
2021/01/08 08:36:37;;;;;;;1.50;1.00;;;;;10.00;101305.00;;;;5000919;28;20205;-78
2021/01/08 08:39:06;;;;;;;1.80;1.20;;;;;10.00;101308.00;;;;4999926;28;20197;-78
2021/01/08 08:41:35;;;;;;;1.25;0.82;;;;;10.10;101315.00;;;;5002534;28;20205;-78
2021/01/08 08:44:05;;;;;;;1.33;0.85;;;;;10.10;101311.00;;;;5006894;28;20208;-77
2021/01/08 08:46:52;;;;;;;1.25;0.98;;;;;10.00;101324.00;;;;5001831;28;20286;-78
2021/01/08 08:49:20;;;;;;;1.55;0.95;;;;;10.10;101320.00;;;;5005280;28;20209;-78
2021/01/08 08:51:48;;;;;;;1.20;0.80;;;;;10.10;101321.00;;;;5005924;28;21000;-78
2021/01/08 08:54:15;;;;;;;1.50;1.10;;;;;10.10;101323.00;;;;5009225;28;20510;-78
2021/01/08 08:56:50;;;;;;;0.80;0.70;;;;;10.10;101322.00;;;;5000077;28;20207;-78
2021/01/08 08:59:32;;;;;;;1.50;1.05;;;;;10.10;101330.00;;;;5004931;28;20232;-78
2021/01/08 09:01:59;;;;;;;1.42;0.63;;;;;10.10;101328.00;;;;5000450;28;20217;-78
2021/01/08 09:04:26;;;;;;;1.25;0.90;;;;;10.20;101332.00;;;;5006840;28;20215;-78
2021/01/08 09:06:59;;;;;;;1.33;0.90;;;;;10.10;101333.00;;;;4999372;28;20227;-78
2021/01/08 09:09:29;;;;;;;1.80;1.23;;;;;10.20;101329.00;;;;5000325;28;20224;-76
2021/01/08 09:12:15;;;;;;;4.07;1.15;;;;;10.20;101335.00;;;;5005358;28;20201;-78
2021/01/08 09:14:43;;;;;;;1.45;1.17;;;;;10.20;101335.00;;;;4997014;28;20201;-77
2021/01/08 09:17:15;;;;;;;1.65;1.52;;;;;10.20;101339.00;;;;5005041;28;20605;-78
2021/01/08 09:19:48;;;;;;;2.22;1.80;;;;;10.20;101340.00;;;;5009601;28;20201;-77
2021/01/08 09:22:16;;;;;;;1.65;1.35;;;;;10.30;101340.00;;;;4996522;28;20209;-77
2021/01/08 09:24:46;;;;;;;2.10;1.60;;;;;10.20;101337.00;;;;5006222;28;20288;-78
2021/01/08 09:27:13;;;;;;;1.08;0.90;;;;;10.30;101344.00;;;;5006748;28;20239;-78
2021/01/08 09:29:40;;;;;;;1.48;1.10;;;;;10.20;101341.00;;;;5006838;28;20203;-77
2021/01/08 09:32:08;;;;;;;1.50;1.20;;;;;10.20;101346.00;;;;5007091;28;20204;-78
2021/01/08 09:34:36;;;;;;;1.42;1.20;;;;;10.20;101355.00;;;;5004961;28;20851;-78
2021/01/08 09:37:15;;;;;;;2.00;0.95;;;;;10.20;101355.00;;;;4993702;28;20194;-77
2021/01/08 09:39:43;;;;;;;1.40;1.20;;;;;10.30;101360.00;;;;5004703;28;20287;-78
2021/01/08 09:42:11;;;;;;;1.60;1.13;;;;;10.40;101363.00;;;;5002775;28;20292;-77
2021/01/08 09:44:39;;;;;;;1.35;0.90;;;;;10.40;101361.00;;;;5000314;28;20216;-78
2021/01/08 09:47:08;;;;;;;1.02;0.80;;;;;10.40;101376.00;;;;4994888;28;20614;-77
2021/01/08 09:49:43;;;;;;;1.13;0.90;;;;;10.40;101371.00;;;;5006995;28;20209;-77
2021/01/08 09:52:12;;;;;;;1.65;0.90;;;;;10.50;101379.00;;;;5007083;28;20252;-80
2021/01/08 09:54:40;;;;;;;1.40;1.10;;;;;10.50;101381.00;;;;5008269;28;20676;-79
2021/01/08 09:57:07;;;;;;;1.65;1.15;;;;;10.50;101384.00;;;;5008810;28;20531;-79
2021/01/08 09:59:34;;;;;;;1.83;1.23;;;;;10.60;101380.00;;;;5004452;28;20224;-77
2021/01/08 10:02:04;;;;;;;1.65;0.90;;;;;10.60;101386.00;;;;5004362;28;20212;-76
2021/01/08 10:04:33;;;;;;;1.60;0.88;;;;;10.70;101388.00;;;;5005989;28;20209;-77
2021/01/08 10:07:02;;;;;;;1.88;1.13;;;;;10.70;101392.00;;;;5006555;28;20229;-76
2021/01/08 10:09:46;;;;;;;1.35;0.98;;;;;10.70;101396.00;;;;5007330;28;20204;-77
2021/01/08 10:12:13;;;;;;;1.83;0.85;;;;;10.80;101392.00;;;;4999966;28;20260;-77
2021/01/08 10:14:40;;;;;;;0.88;0.70;;;;;10.80;101391.00;;;;5006796;28;20205;-77
2021/01/08 10:17:10;;;;;;;1.00;0.65;;;;;10.80;101386.00;;;;5005145;28;20208;-78
2021/01/08 10:19:38;;;;;;;1.45;0.60;;;;;10.90;101389.00;;;;4999350;28;20210;-78
2021/01/08 10:22:06;;;;;;;1.30;1.10;;;;;10.80;101395.00;;;;5003335;28;20801;-77
2021/01/08 10:24:33;;;;;;;1.52;1.08;;;;;10.90;101394.00;;;;5000833;28;20287;-80
2021/01/08 10:27:00;;;;;;;1.45;1.13;;;;;10.90;101399.00;;;;4996364;28;20224;-77
2021/01/08 10:29:31;;;;;;;1.67;1.20;;;;;10.90;101399.00;;;;5007824;28;20197;-77
2021/01/08 10:32:04;;;;;;;1.50;1.10;;;;;11.00;101394.00;;;;4996414;28;20582;-77
2021/01/08 10:34:34;;;;;;;1.77;1.20;;;;;11.00;101401.00;;;;5008916;28;20200;-77
2021/01/08 10:37:01;;;;;;;1.38;0.95;;;;;11.10;101398.00;;;;5007623;28;20193;-77
2021/01/08 10:39:29;;;;;;;1.67;1.13;;;;;11.10;101394.00;;;;5007729;28;20201;-78
2021/01/08 10:41:55;;;;;;;2.58;1.40;;;;;11.10;101396.00;;;;5007502;28;20204;-79
2021/01/08 10:44:22;;;;;;;1.65;1.20;;;;;11.20;101400.00;;;;5008975;28;20197;-77
2021/01/08 10:46:49;;;;;;;2.63;1.55;;;;;11.20;101404.00;;;;4998946;28;20229;-77
2021/01/08 10:49:16;;;;;;;1.80;1.13;;;;;11.30;101395.00;;;;5000053;28;20581;-77
2021/01/08 10:51:42;;;;;;;1.17;0.90;;;;;11.40;101400.00;;;;4996413;28;20205;-78
2021/01/08 10:54:15;;;;;;;1.50;1.02;;;;;11.40;101407.00;;;;5006351;28;20205;-78
2021/01/08 10:56:43;;;;;;;1.42;1.02;;;;;11.40;101403.00;;;;4995416;28;21110;-78
2021/01/08 10:59:11;;;;;;;1.63;1.00;;;;;11.50;101404.00;;;;5004608;28;20679;-78
2021/01/08 11:01:43;;;;;;;2.78;1.48;;;;;11.50;101409.00;;;;5003446;28;20245;-78
2021/01/08 11:04:10;;;;;;;2.78;1.00;;;;;11.50;101412.00;;;;5001993;28;20216;-78
2021/01/08 11:06:38;;;;;;;2.22;0.82;;;;;11.50;101415.00;;;;4996859;28;20286;-78
2021/01/08 11:09:06;;;;;;;1.25;0.80;;;;;11.50;101416.00;;;;5007184;28;20196;-77
2021/01/08 11:11:33;;;;;;;1.83;0.90;;;;;11.50;101413.00;;;;4998542;28;20228;-78
2021/01/08 11:14:00;;;;;;;1.00;0.90;;;;;11.60;101421.00;;;;5002359;28;20205;-78
2021/01/08 11:16:28;;;;;;;1.52;1.00;;;;;11.60;101424.00;;;;4996886;28;20271;-77
2021/01/08 11:18:55;;;;;;;1.30;0.82;;;;;11.60;101420.00;;;;4999464;28;20197;-77
2021/01/08 11:21:22;;;;;;;1.58;0.70;;;;;11.70;101418.00;;;;4999378;28;20208;-78
2021/01/08 11:23:50;;;;;;;1.85;0.98;;;;;11.70;101416.00;;;;5009924;28;20217;-78
2021/01/08 11:26:24;;;;;;;0.90;0.70;;;;;11.70;101419.00;;;;5007827;28;20220;-76
2021/01/08 11:28:50;;;;;;;2.25;1.17;;;;;11.80;101424.00;;;;5004775;28;20194;-77
2021/01/08 11:31:18;;;;;;;1.38;0.80;;;;;11.80;101424.00;;;;5003000;28;20186;-76
2021/01/08 11:33:45;;;;;;;1.40;0.82;;;;;11.90;101426.00;;;;4999489;28;20208;-76
2021/01/08 11:36:12;;;;;;;1.90;1.10;;;;;11.90;101430.00;;;;5004851;28;20204;-77
2021/01/08 11:38:39;;;;;;;1.45;1.00;;;;;11.90;101422.00;;;;5010637;28;20193;-76
2021/01/08 11:41:06;;;;;;;0.95;0.75;;;;;11.90;101427.00;;;;5011401;28;20212;-76
2021/01/08 11:43:33;;;;;;;1.50;1.00;;;;;11.90;101434.00;;;;5011933;28;20204;-76
2021/01/08 11:45:59;;;;;;;1.35;0.77;;;;;11.90;101430.00;;;;4992773;28;20247;-76
2021/01/08 11:48:27;;;;;;;0.82;0.60;;;;;11.90;101427.00;;;;4995554;28;20654;-77
2021/01/08 11:50:54;;;;;;;1.48;1.00;;;;;11.90;101426.00;;;;5009427;28;20205;-76
2021/01/08 11:53:21;;;;;;;1.30;0.95;;;;;11.90;101431.00;;;;5007508;28;20235;-76
2021/01/08 11:55:48;;;;;;;1.60;0.85;;;;;11.90;101433.00;;;;5000548;28;20686;-76
2021/01/08 11:58:15;;;;;;;0.93;0.70;;;;;11.90;101430.00;;;;5008296;28;20566;-76
2021/01/08 12:00:41;;;;;;;1.33;0.98;;;;;11.90;101429.00;;;;5012171;28;20205;-76
2021/01/08 12:03:08;;;;;;;1.38;0.95;;;;;11.90;101433.00;;;;5011787;28;20722;-77
2021/01/08 12:05:36;;;;;;;1.10;0.70;;;;;11.90;101438.00;;;;5009654;28;20197;-76
2021/01/08 12:08:03;;;;;;;1.10;0.55;;;;;11.90;101442.00;;;;5008036;28;20205;-77
2021/01/08 12:10:29;;;;;;;1.15;0.85;;;;;11.90;101446.00;;;;5011114;28;20212;-76
2021/01/08 12:12:56;;;;;;;1.00;0.77;;;;;11.90;101441.00;;;;5010552;28;20193;-77
2021/01/08 12:15:23;;;;;;;0.98;0.70;;;;;11.80;101438.00;;;;5010950;28;20655;-77
2021/01/08 12:17:50;;;;;;;0.75;0.63;;;;;11.80;101439.00;;;;5011137;28;20197;-76